createdAt,value
2023-05-09T00:00:57.319Z,52.30
2023-05-09T00:03:31.029Z,53.90
2023-05-09T00:06:02.607Z,52.90
2023-05-09T00:08:33.510Z,53.90
2023-05-09T00:11:04.810Z,53.90
2023-05-09T00:13:35.959Z,53.90
2023-05-09T00:16:07.301Z,53.80
2023-05-09T00:18:43.884Z,54.00
2023-05-09T00:21:14.768Z,55.70
2023-05-09T00:23:48.536Z,56.40
2023-05-09T00:26:19.792Z,56.80
2023-05-09T00:28:50.708Z,56.70
2023-05-09T00:31:21.665Z,56.60
2023-05-09T00:33:57.144Z,56.70
2023-05-09T00:36:28.273Z,57.30
2023-05-09T00:38:59.251Z,65.10
2023-05-09T00:41:30.201Z,68.00
2023-05-09T00:44:01.122Z,66.30
2023-05-09T00:46:33.362Z,67.80
2023-05-09T00:49:08.264Z,74.30
2023-05-09T00:51:40.085Z,81.80
2023-05-09T00:54:12.165Z,87.60
2023-05-09T00:56:43.232Z,84.00
2023-05-09T00:59:16.274Z,89.60
2023-05-09T01:01:48.628Z,90.90
2023-05-09T01:04:22.533Z,91.90
2023-05-09T01:07:01.036Z,92.70
2023-05-09T01:09:39.804Z,90.80
2023-05-09T01:12:19.347Z,90.50
2023-05-09T01:15:00.047Z,91.00
2023-05-09T01:17:39.524Z,91.60
2023-05-09T01:20:21.983Z,90.00
2023-05-09T01:23:03.606Z,90.80
2023-05-09T01:25:47.523Z,91.40
2023-05-09T01:28:32.451Z,94.30
2023-05-09T01:31:07.455Z,97.30
2023-05-09T01:33:41.759Z,97.30
2023-05-09T01:36:18.677Z,99.90
2023-05-09T01:38:53.001Z,99.90
2023-05-09T01:41:25.931Z,99.90
2023-05-09T01:44:00.242Z,99.90
2023-05-09T01:46:33.802Z,99.90
2023-05-09T01:49:06.371Z,99.90
2023-05-09T01:51:40.728Z,99.90
2023-05-09T01:54:13.193Z,99.90
2023-05-09T01:56:46.016Z,99.90
2023-05-09T01:59:18.897Z,99.90
2023-05-09T02:01:55.179Z,97.20
2023-05-09T02:04:27.530Z,98.70
2023-05-09T02:07:00.195Z,98.90
2023-05-09T02:09:31.177Z,99.00
2023-05-09T02:12:02.268Z,99.90
2023-05-09T02:14:33.256Z,99.90
2023-05-09T02:17:09.623Z,99.90
2023-05-09T02:19:40.558Z,99.90
2023-05-09T02:22:11.956Z,99.90
2023-05-09T02:24:43.785Z,99.90
2023-05-09T02:27:15.589Z,99.90
2023-05-09T02:29:50.396Z,99.90
2023-05-09T02:32:28.353Z,99.90
2023-05-09T02:35:00.635Z,99.90
2023-05-09T02:37:32.388Z,99.90
2023-05-09T02:40:05.562Z,99.90
2023-05-09T02:42:36.737Z,99.90
2023-05-09T02:45:09.941Z,99.90
2023-05-09T02:47:43.462Z,99.90
2023-05-09T02:50:15.228Z,99.90
2023-05-09T02:52:46.404Z,99.90
2023-05-09T02:55:17.499Z,99.90
2023-05-09T02:57:51.920Z,99.90
2023-05-09T03:00:28.110Z,99.90
2023-05-09T03:03:02.829Z,99.90
2023-05-09T03:05:33.908Z,99.90
2023-05-09T03:08:05.243Z,99.90
2023-05-09T03:10:36.064Z,99.90
2023-05-09T03:13:07.049Z,99.90
2023-05-09T03:15:38.232Z,99.90
2023-05-09T03:18:12.008Z,99.90
2023-05-09T03:20:42.954Z,99.90
2023-05-09T03:23:13.863Z,99.90
2023-05-09T03:25:45.516Z,99.90
2023-05-09T03:28:16.506Z,99.90
2023-05-09T03:30:47.376Z,99.90
2023-05-09T03:33:21.070Z,99.90
2023-05-09T03:35:52.277Z,99.90
2023-05-09T03:38:24.447Z,99.90
2023-05-09T03:40:56.696Z,99.90
2023-05-09T03:43:27.620Z,99.90
2023-05-09T03:45:58.625Z,99.90
2023-05-09T03:48:32.187Z,99.90
2023-05-09T03:51:03.158Z,99.90
2023-05-09T03:53:34.190Z,99.90
2023-05-09T03:56:05.165Z,99.90
2023-05-09T03:58:36.188Z,99.90
2023-05-09T04:01:07.219Z,99.90
2023-05-09T04:03:41.413Z,99.90
2023-05-09T04:06:12.783Z,99.90
2023-05-09T04:08:44.622Z,99.90
2023-05-09T04:11:15.629Z,99.90
2023-05-09T04:13:46.548Z,99.90
2023-05-09T04:16:17.503Z,99.90
2023-05-09T04:18:51.657Z,99.90
2023-05-09T04:21:22.497Z,99.90
2023-05-09T04:23:53.577Z,99.90
2023-05-09T04:26:24.826Z,99.90
2023-05-09T04:28:55.793Z,99.90
2023-05-09T04:31:26.991Z,99.90
2023-05-09T04:34:00.659Z,99.90
2023-05-09T04:36:31.970Z,99.90
2023-05-09T04:39:05.286Z,99.90
2023-05-09T04:41:36.269Z,99.90
2023-05-09T04:44:08.121Z,99.90
2023-05-09T04:46:39.098Z,99.90
2023-05-09T04:49:12.590Z,99.90
2023-05-09T04:51:43.463Z,99.90
2023-05-09T04:54:14.470Z,99.90
2023-05-09T04:56:45.356Z,99.90
2023-05-09T04:59:16.536Z,99.90
2023-05-09T05:01:47.670Z,99.90
2023-05-09T05:04:21.285Z,99.90
2023-05-09T05:06:52.236Z,99.90
2023-05-09T05:09:23.416Z,99.90
2023-05-09T05:12:01.875Z,99.90
2023-05-09T05:14:34.042Z,99.90
2023-05-09T05:17:04.983Z,99.90
2023-05-09T05:19:38.560Z,99.90
2023-05-09T05:22:09.630Z,99.90
2023-05-09T05:24:40.589Z,99.90
2023-05-09T05:27:14.435Z,99.90
2023-05-09T05:29:45.372Z,99.90
2023-05-09T05:32:18.407Z,99.90
2023-05-09T05:34:52.055Z,99.90
2023-05-09T05:37:22.996Z,99.90
2023-05-09T05:39:54.535Z,99.90
2023-05-09T05:42:25.624Z,99.90
2023-05-09T05:44:56.700Z,99.90
2023-05-09T05:47:29.310Z,99.90
2023-05-09T05:50:03.481Z,99.90
2023-05-09T05:52:34.575Z,99.90
2023-05-09T05:55:05.647Z,99.90
2023-05-09T05:57:37.853Z,99.90
2023-05-09T06:00:11.745Z,99.90
2023-05-09T06:02:44.909Z,99.90
2023-05-09T06:05:18.609Z,99.90
2023-05-09T06:07:49.560Z,99.90
2023-05-09T06:10:20.584Z,99.90
2023-05-09T06:12:53.929Z,99.90
2023-05-09T06:15:24.949Z,99.90
2023-05-09T06:17:59.268Z,99.90
2023-05-09T06:20:33.261Z,99.90
2023-05-09T06:23:04.188Z,99.90
2023-05-09T06:25:35.296Z,99.90
2023-05-09T06:28:06.518Z,99.90
2023-05-09T06:30:37.519Z,99.90
2023-05-09T06:33:08.956Z,99.90
2023-05-09T06:35:42.718Z,99.90
2023-05-09T06:38:13.702Z,98.60
2023-05-09T06:40:44.726Z,96.10
2023-05-09T06:43:15.679Z,89.60
2023-05-09T06:45:46.680Z,89.50
2023-05-09T06:48:17.554Z,85.70
2023-05-09T06:50:51.582Z,80.00
2023-05-09T06:53:22.698Z,76.20
2023-05-09T06:55:53.721Z,70.10
2023-05-09T06:58:24.723Z,65.50
2023-05-09T07:00:56.169Z,66.30
2023-05-09T07:03:27.053Z,63.80
2023-05-09T07:06:00.535Z,63.90
2023-05-09T07:08:32.599Z,65.40
2023-05-09T07:11:03.587Z,59.70
2023-05-09T07:13:34.504Z,62.50
2023-05-09T07:16:05.564Z,60.80
2023-05-09T07:18:36.454Z,60.20
2023-05-09T07:21:10.252Z,54.10
2023-05-09T07:23:41.128Z,52.50
2023-05-09T07:26:14.879Z,54.40
2023-05-09T07:28:45.990Z,53.50
2023-05-09T07:31:16.878Z,52.50
2023-05-09T07:33:47.971Z,52.90
2023-05-09T07:36:21.781Z,52.00
2023-05-09T07:38:53.688Z,49.70
2023-05-09T07:41:25.122Z,46.00
2023-05-09T07:43:56.176Z,46.30
2023-05-09T07:46:27.641Z,45.70
2023-05-09T07:49:01.669Z,45.10
2023-05-09T07:51:35.196Z,42.20
2023-05-09T07:54:10.215Z,42.00
2023-05-09T07:56:41.381Z,42.10
2023-05-09T07:59:12.410Z,39.80
2023-05-09T08:01:43.360Z,40.40
2023-05-09T08:04:14.313Z,41.20
2023-05-09T08:06:50.201Z,40.00
2023-05-09T08:09:23.956Z,38.80
2023-05-09T08:11:57.006Z,39.20
2023-05-09T08:14:27.986Z,40.10
2023-05-09T08:16:58.991Z,38.70
2023-05-09T08:19:29.916Z,37.10
2023-05-09T08:22:03.552Z,35.40
2023-05-09T08:24:35.747Z,34.40
2023-05-09T08:27:07.234Z,33.30
2023-05-09T08:29:38.703Z,36.00
2023-05-09T08:32:09.900Z,30.20
2023-05-09T08:34:40.957Z,29.90
2023-05-09T08:37:15.409Z,28.90
2023-05-09T08:39:46.705Z,27.70
2023-05-09T08:42:24.802Z,27.40
2023-05-09T08:44:57.197Z,26.30
2023-05-09T08:47:29.587Z,27.80
2023-05-09T08:50:00.654Z,27.30
2023-05-09T08:52:35.759Z,29.30
2023-05-09T08:55:07.614Z,27.30
2023-05-09T08:57:38.706Z,26.70
2023-05-09T09:00:12.257Z,27.30
2023-05-09T09:02:44.302Z,25.90
2023-05-09T09:05:34.261Z,25.70
2023-05-09T09:08:11.125Z,27.10
2023-05-09T09:10:47.382Z,22.90
2023-05-09T09:13:20.032Z,22.50
2023-05-09T09:15:54.636Z,22.60
2023-05-09T09:18:31.165Z,23.10
2023-05-09T09:21:08.425Z,20.00
2023-05-09T09:23:48.444Z,20.20
2023-05-09T09:26:22.402Z,19.40
2023-05-09T09:28:58.102Z,20.40
2023-05-09T09:31:35.822Z,17.50
2023-05-09T09:34:06.922Z,19.00
2023-05-09T09:36:38.040Z,15.80
2023-05-09T09:39:16.712Z,14.60
2023-05-09T09:41:47.758Z,17.00
2023-05-09T09:44:20.229Z,15.70
2023-05-09T09:46:53.040Z,13.80
2023-05-09T09:49:25.141Z,12.30
2023-05-09T09:51:57.706Z,11.50
2023-05-09T09:54:32.162Z,12.50
2023-05-09T09:57:03.301Z,9.50
2023-05-09T09:59:34.309Z,10.70
2023-05-09T10:02:09.944Z,11.20
2023-05-09T10:04:48.683Z,11.00
2023-05-09T10:07:28.300Z,11.40
2023-05-09T10:10:18.636Z,10.60
2023-05-09T10:13:02.178Z,8.60
2023-05-09T10:15:49.297Z,8.90
2023-05-09T10:18:51.534Z,10.20
2023-05-09T10:21:47.975Z,11.60
2023-05-09T10:24:21.019Z,10.90
2023-05-09T10:27:09.116Z,10.20
2023-05-09T10:29:47.502Z,7.90
2023-05-09T10:32:35.785Z,8.60
2023-05-09T10:35:09.764Z,7.50
2023-05-09T10:37:43.286Z,7.90
2023-05-09T10:40:15.776Z,8.10
2023-05-09T10:42:52.193Z,6.90
2023-05-09T10:45:24.789Z,7.20
2023-05-09T10:47:57.715Z,7.30
2023-05-09T10:50:29.413Z,5.80
2023-05-09T10:53:14.350Z,4.40
2023-05-09T10:55:53.822Z,5.50
2023-05-09T10:58:30.134Z,4.40
2023-05-09T11:01:04.615Z,4.40
2023-05-09T11:03:57.186Z,5.30
2023-05-09T11:06:49.579Z,5.30
2023-05-09T11:09:33.559Z,4.10
2023-05-09T11:12:12.221Z,4.60
2023-05-09T11:14:51.815Z,3.50
2023-05-09T11:17:32.926Z,5.30
2023-05-09T11:20:06.938Z,4.40
2023-05-09T11:22:43.064Z,3.30
2023-05-09T11:25:17.097Z,4.40
2023-05-09T11:27:53.455Z,4.50
2023-05-09T11:30:39.011Z,3.70
2023-05-09T11:33:23.953Z,3.70
2023-05-09T11:36:20.521Z,3.50
2023-05-09T11:38:52.007Z,4.20
2023-05-09T11:41:23.060Z,3.90
2023-05-09T11:43:56.012Z,4.80
2023-05-09T11:46:29.981Z,3.30
2023-05-09T11:49:02.172Z,1.00
2023-05-09T11:51:33.100Z,1.00
2023-05-09T11:54:07.693Z,1.10
2023-05-09T11:56:40.882Z,2.20
2023-05-09T11:59:14.731Z,1.20
2023-05-09T12:01:48.589Z,2.50
2023-05-09T12:04:19.609Z,3.10
2023-05-09T12:06:51.246Z,3.70
2023-05-09T12:09:22.485Z,4.30
2023-05-09T12:11:53.456Z,4.20
2023-05-09T12:14:31.588Z,4.40
2023-05-09T12:17:07.874Z,5.40
2023-05-09T12:19:39.561Z,3.90
2023-05-09T12:22:10.778Z,4.50
2023-05-09T12:24:41.800Z,5.70
2023-05-09T12:27:13.118Z,4.10
2023-05-09T12:29:46.222Z,4.10
2023-05-09T12:32:20.844Z,1.90
2023-05-09T12:34:52.245Z,3.10
2023-05-09T12:37:23.590Z,2.50
2023-05-09T12:40:04.914Z,2.90
2023-05-09T12:42:36.782Z,2.80
2023-05-09T12:45:11.452Z,3.60
2023-05-09T12:47:45.704Z,3.40
2023-05-09T12:50:16.777Z,4.10
2023-05-09T12:53:02.930Z,3.70
2023-05-09T12:55:41.481Z,3.70
2023-05-09T12:58:12.540Z,4.30
2023-05-09T13:00:47.014Z,4.40
2023-05-09T13:03:30.780Z,2.40
2023-05-09T13:06:04.010Z,2.70
2023-05-09T13:08:34.981Z,3.00
2023-05-09T13:11:15.664Z,3.40
2023-05-09T13:13:47.297Z,3.40
2023-05-09T13:16:18.427Z,4.80
2023-05-09T13:18:52.116Z,3.40
2023-05-09T13:21:23.071Z,3.10
2023-05-09T13:23:54.533Z,3.70
2023-05-09T13:26:27.120Z,4.20
2023-05-09T13:29:01.264Z,2.80
2023-05-09T13:31:32.242Z,4.20
2023-05-09T13:34:05.907Z,4.30
2023-05-09T13:36:36.774Z,4.60
2023-05-09T13:39:14.830Z,3.10
2023-05-09T13:41:45.706Z,3.40
2023-05-09T13:44:16.684Z,6.20
2023-05-09T13:46:48.826Z,4.40
2023-05-09T13:49:22.398Z,4.50
2023-05-09T13:51:57.695Z,3.80
2023-05-09T13:54:30.276Z,3.30
2023-05-09T13:57:01.533Z,4.40
2023-05-09T13:59:32.677Z,5.90
2023-05-09T14:02:04.191Z,8.30
2023-05-09T14:04:43.077Z,7.00
2023-05-09T14:07:15.087Z,8.70
2023-05-09T14:09:49.110Z,9.90
2023-05-09T14:12:23.323Z,13.30
2023-05-09T14:14:54.439Z,14.90
2023-05-09T14:17:25.629Z,18.20
2023-05-09T14:19:59.210Z,19.90
2023-05-09T14:22:30.338Z,22.90
2023-05-09T14:25:01.991Z,23.20
2023-05-09T14:27:37.407Z,26.30
2023-05-09T14:30:10.890Z,26.90
2023-05-09T14:32:41.851Z,28.30
2023-05-09T14:35:15.731Z,29.90
2023-05-09T14:37:46.657Z,29.90
2023-05-09T14:40:17.900Z,29.80
2023-05-09T14:42:50.896Z,32.50
2023-05-09T14:45:28.122Z,33.70
2023-05-09T14:47:59.078Z,37.40
2023-05-09T14:50:33.528Z,44.10
2023-05-09T14:53:12.925Z,52.60
2023-05-09T14:55:44.007Z,60.00
2023-05-09T14:58:16.301Z,99.00
2023-05-09T15:00:47.562Z,99.90
2023-05-09T15:03:21.976Z,99.90
2023-05-09T15:05:55.584Z,99.90
2023-05-09T15:08:26.843Z,99.90
2023-05-09T15:10:58.045Z,99.90
2023-05-09T15:13:29.003Z,99.90
2023-05-09T15:16:00.057Z,99.90
2023-05-09T15:18:31.008Z,99.90
2023-05-09T15:21:04.704Z,99.90
2023-05-09T15:23:39.510Z,99.90
2023-05-09T15:26:12.473Z,99.90
2023-05-09T15:28:44.405Z,99.90
2023-05-09T15:31:15.384Z,99.90
2023-05-09T15:33:47.841Z,99.90
2023-05-09T15:36:21.514Z,99.90
2023-05-09T15:38:52.929Z,99.90
2023-05-09T15:41:24.039Z,99.90
2023-05-09T15:43:55.551Z,99.90
2023-05-09T15:46:26.800Z,99.90
2023-05-09T15:49:00.420Z,99.90
2023-05-09T15:51:34.194Z,99.90
2023-05-09T15:54:05.167Z,99.90
2023-05-09T15:56:36.116Z,99.90
2023-05-09T15:59:07.461Z,99.90
2023-05-09T16:01:38.483Z,99.90
2023-05-09T16:04:09.610Z,99.90
2023-05-09T16:06:43.324Z,99.90
2023-05-09T16:09:15.559Z,99.90
2023-05-09T16:11:46.750Z,99.90
2023-05-09T16:14:17.700Z,99.90
2023-05-09T16:16:50.739Z,99.90
2023-05-09T16:19:21.840Z,99.90
2023-05-09T16:21:55.431Z,99.90
2023-05-09T16:24:26.329Z,99.90
2023-05-09T16:26:57.219Z,99.90
2023-05-09T16:29:28.864Z,99.90
2023-05-09T16:31:59.731Z,99.90
2023-05-09T16:34:30.916Z,99.90
2023-05-09T16:37:04.624Z,99.90
2023-05-09T16:39:35.554Z,99.90
2023-05-09T16:42:06.702Z,99.90
2023-05-09T16:44:37.708Z,99.90
2023-05-09T16:47:08.704Z,99.90
2023-05-09T16:49:39.691Z,99.90
2023-05-09T16:52:13.463Z,99.90
2023-05-09T16:54:44.461Z,99.90
2023-05-09T16:57:16.843Z,99.90
2023-05-09T16:59:48.045Z,99.90
2023-05-09T17:02:21.738Z,99.90
2023-05-09T17:04:52.764Z,99.90
2023-05-09T17:07:26.340Z,99.90
2023-05-09T17:09:57.236Z,99.90
2023-05-09T17:12:28.420Z,99.90
2023-05-09T17:14:59.289Z,99.90
2023-05-09T17:17:32.595Z,99.90
2023-05-09T17:20:04.633Z,99.90
2023-05-09T17:22:38.164Z,99.90
2023-05-09T17:25:10.267Z,99.90
2023-05-09T17:27:42.823Z,99.90
2023-05-09T17:30:14.803Z,99.90
2023-05-09T17:32:45.925Z,99.90
2023-05-09T17:35:19.468Z,99.90
2023-05-09T17:37:52.962Z,99.90
2023-05-09T17:40:24.185Z,99.90
2023-05-09T17:42:55.235Z,99.90
2023-05-09T17:45:26.991Z,99.90
2023-05-09T17:47:58.681Z,99.90
2023-05-09T17:50:29.844Z,99.90
2023-05-09T17:53:03.387Z,99.90
2023-05-09T17:55:34.439Z,99.90
2023-05-09T17:58:05.319Z,99.90
2023-05-09T18:00:36.928Z,99.90
2023-05-09T18:03:07.964Z,99.90
2023-05-09T18:05:38.891Z,99.90
2023-05-09T18:08:12.388Z,99.90
2023-05-09T18:10:44.170Z,99.90
2023-05-09T18:13:15.169Z,99.90
2023-05-09T18:15:46.190Z,99.90
2023-05-09T18:18:17.607Z,99.90
2023-05-09T18:20:49.157Z,99.90
2023-05-09T18:23:25.002Z,99.90
2023-05-09T18:25:56.854Z,99.90
2023-05-09T18:28:29.042Z,99.90
2023-05-09T18:31:01.508Z,99.90
2023-05-09T18:33:39.273Z,99.90
2023-05-09T18:36:15.247Z,99.90
2023-05-09T18:38:48.849Z,99.90
2023-05-09T18:41:20.130Z,99.90
2023-05-09T18:43:51.156Z,99.90
2023-05-09T18:46:22.734Z,99.90
2023-05-09T18:48:54.540Z,99.90
2023-05-09T18:51:25.727Z,99.90
2023-05-09T18:53:59.237Z,99.90
2023-05-09T18:56:30.136Z,99.90
2023-05-09T18:59:01.010Z,99.90
2023-05-09T19:01:32.185Z,99.90
2023-05-09T19:04:04.547Z,99.90
2023-05-09T19:06:35.636Z,99.90
2023-05-09T19:09:09.108Z,99.90
2023-05-09T19:11:40.043Z,99.90
2023-05-09T19:14:10.965Z,99.90
2023-05-09T19:16:42.020Z,99.90
2023-05-09T19:19:13.437Z,99.90
2023-05-09T19:21:44.471Z,99.90
2023-05-09T19:24:18.132Z,99.90
2023-05-09T19:26:49.096Z,99.90
2023-05-09T19:29:19.977Z,99.90
2023-05-09T19:31:53.355Z,99.90
2023-05-09T19:34:24.439Z,99.90
2023-05-09T19:36:55.494Z,99.90
2023-05-09T19:39:29.779Z,99.90
2023-05-09T19:42:00.902Z,99.90
2023-05-09T19:44:31.806Z,99.90
2023-05-09T19:47:05.390Z,99.90
2023-05-09T19:49:36.338Z,99.90
2023-05-09T19:52:07.809Z,99.90
2023-05-09T19:54:41.388Z,99.90
2023-05-09T19:57:13.937Z,99.90
2023-05-09T19:59:44.995Z,99.90
2023-05-09T20:02:16.049Z,99.90
2023-05-09T20:04:50.051Z,99.90
2023-05-09T20:07:21.278Z,99.90
2023-05-09T20:09:57.858Z,99.90
2023-05-09T20:12:30.196Z,99.90
2023-05-09T20:15:01.589Z,99.90
2023-05-09T20:17:35.403Z,99.90
2023-05-09T20:20:07.087Z,99.90
2023-05-09T20:22:38.037Z,99.90
2023-05-09T20:27:58.251Z,99.90
2023-05-09T20:30:29.378Z,99.90
2023-05-09T20:33:01.343Z,99.90
2023-05-09T20:35:32.360Z,99.90
2023-05-09T20:38:04.818Z,99.90
2023-05-09T20:40:38.665Z,99.90
2023-05-09T20:43:09.636Z,99.90
2023-05-09T20:45:40.544Z,99.90
2023-05-09T20:48:12.505Z,99.90
2023-05-09T20:50:43.409Z,99.90
2023-05-09T20:53:14.559Z,99.90
2023-05-09T20:55:50.375Z,99.90
2023-05-09T20:58:21.651Z,99.90
2023-05-09T21:00:52.888Z,99.90
2023-05-09T21:03:23.734Z,99.90
2023-05-09T21:05:54.745Z,99.90
2023-05-09T21:08:26.007Z,99.90
2023-05-09T21:10:59.484Z,99.90
2023-05-09T21:13:30.625Z,99.90
2023-05-09T21:16:01.584Z,99.90
2023-05-09T21:18:32.601Z,99.90
2023-05-09T21:21:04.966Z,99.90
2023-05-09T21:23:35.778Z,99.90
2023-05-09T21:26:09.207Z,99.90
2023-05-09T21:28:40.102Z,99.90
2023-05-09T21:31:11.497Z,99.90
2023-05-09T21:33:42.543Z,99.90
2023-05-09T21:36:16.451Z,99.90
2023-05-09T21:38:47.325Z,99.90
2023-05-09T21:41:22.011Z,99.90
2023-05-09T21:43:52.905Z,99.90
2023-05-09T21:46:23.830Z,99.90
2023-05-09T21:48:55.390Z,99.90
2023-05-09T21:52:06.682Z,99.90
2023-05-09T21:55:47.169Z,99.90
2023-05-09T21:58:20.689Z,99.90
2023-05-09T22:00:51.747Z,99.90
2023-05-09T22:03:23.512Z,99.90
2023-05-09T22:05:54.525Z,99.90
2023-05-09T22:08:25.938Z,99.90
2023-05-09T22:10:56.843Z,99.90
2023-05-09T22:13:30.372Z,99.90
2023-05-09T22:16:01.642Z,99.90
2023-05-09T22:18:32.596Z,99.90
2023-05-09T22:21:03.514Z,99.90
2023-05-09T22:23:34.413Z,99.90
2023-05-09T22:26:05.470Z,99.90
2023-05-09T22:28:39.764Z,99.90
2023-05-09T22:31:10.806Z,99.90
2023-05-09T22:33:41.746Z,99.90
2023-05-09T22:36:12.841Z,99.90
2023-05-09T22:38:43.982Z,99.90
2023-05-09T22:41:15.119Z,99.90
2023-05-09T22:43:48.552Z,99.90
2023-05-09T22:46:19.526Z,99.90
2023-05-09T22:48:50.435Z,99.90
2023-05-09T22:51:21.316Z,99.90
2023-05-09T22:53:52.471Z,99.90
2023-05-09T22:56:23.603Z,99.90
2023-05-09T22:58:57.426Z,99.90
2023-05-09T23:01:29.842Z,99.90
2023-05-09T23:04:00.847Z,99.90
2023-05-09T23:06:31.803Z,99.90
2023-05-09T23:09:02.681Z,99.90
2023-05-09T23:11:33.992Z,99.90
2023-05-09T23:14:07.574Z,99.90
2023-05-09T23:16:38.605Z,99.90
2023-05-09T23:19:09.665Z,99.90
2023-05-09T23:21:40.643Z,99.90
2023-05-09T23:24:11.937Z,99.90
2023-05-09T23:26:43.134Z,99.90
2023-05-09T23:29:16.645Z,99.90
2023-05-09T23:31:47.704Z,99.90
2023-05-09T23:34:19.049Z,99.90
2023-05-09T23:36:49.933Z,99.90
2023-05-09T23:39:21.011Z,99.90
2023-05-09T23:41:51.916Z,99.90
2023-05-09T23:44:37.489Z,99.90
2023-05-09T23:47:08.733Z,99.90
2023-05-09T23:49:39.821Z,99.90
2023-05-09T23:52:10.756Z,99.90
2023-05-09T23:54:41.725Z,99.90
2023-05-09T23:57:12.613Z,99.90
2023-05-09T23:59:46.742Z,99.90
